Time;durP1;ratioP1;P1;durP2;ratioP2;P2;SDS_P1;SDS_P2;PMS_P1;PMS_P2;Temp;Humidity;BMP_temperature;BMP_pressure;BME280_temperature;BME280_humidity;BME280_pressure;Samples;Min_cycle;Max_cycle;Signal;HPM_P1;HPM_P2
2024/01/17 00:00:03;;;;;;;25.05;10.30;;;-2.60;99.90;;;;;;4971719;28;20743;-74
2024/01/17 00:02:29;;;;;;;24.05;10.95;;;-2.60;99.90;;;;;;4975777;28;20030;-73
2024/01/17 00:04:55;;;;;;;21.40;10.52;;;-2.60;99.90;;;;;;4973644;28;20027;-74
2024/01/17 00:07:20;;;;;;;22.17;9.98;;;-2.60;99.90;;;;;;4971301;28;20102;-75
2024/01/17 00:09:47;;;;;;;23.08;10.95;;;-2.60;99.90;;;;;;4988855;28;20084;-74
2024/01/17 00:12:13;;;;;;;22.95;10.77;;;-2.70;99.90;;;;;;4971079;28;20027;-74
2024/01/17 00:14:39;;;;;;;21.42;10.77;;;-2.70;99.90;;;;;;4966798;28;20030;-74
2024/01/17 00:17:04;;;;;;;24.35;10.80;;;-2.70;99.90;;;;;;4964042;28;20030;-73
2024/01/17 00:19:31;;;;;;;19.90;10.77;;;-2.70;99.90;;;;;;4966455;28;20499;-74
2024/01/17 00:21:56;;;;;;;26.20;12.02;;;-2.70;99.90;;;;;;4965609;28;20506;-74
2024/01/17 00:24:22;;;;;;;20.52;10.25;;;-2.70;99.90;;;;;;4963754;28;20101;-73
2024/01/17 00:26:48;;;;;;;20.98;10.65;;;-2.70;99.90;;;;;;4964912;28;20038;-74
2024/01/17 00:29:13;;;;;;;22.15;10.50;;;-2.70;99.90;;;;;;4967228;28;20752;-74
2024/01/17 00:31:39;;;;;;;22.77;10.95;;;-2.70;99.90;;;;;;4967886;28;20609;-74
2024/01/17 00:34:05;;;;;;;22.77;11.15;;;-2.70;99.90;;;;;;4962827;28;20030;-74
2024/01/17 00:36:31;;;;;;;22.80;10.00;;;-2.70;99.90;;;;;;4968776;28;20069;-74
2024/01/17 00:38:56;;;;;;;20.92;11.13;;;-2.70;99.90;;;;;;4966085;28;20490;-74
2024/01/17 00:41:22;;;;;;;23.48;10.50;;;-2.60;99.90;;;;;;4964424;28;20026;-74
2024/01/17 00:43:47;;;;;;;24.50;10.88;;;-2.60;99.90;;;;;;4966168;28;20035;-74
2024/01/17 00:46:13;;;;;;;19.08;10.18;;;-2.60;99.90;;;;;;4962672;28;20150;-73
2024/01/17 00:48:38;;;;;;;30.65;12.00;;;-2.60;99.90;;;;;;4966608;28;20023;-74
2024/01/17 00:51:04;;;;;;;23.02;10.55;;;-2.60;99.90;;;;;;4967581;28;20094;-74
2024/01/17 00:53:30;;;;;;;31.42;11.93;;;-2.50;99.90;;;;;;4968083;28;20023;-73
2024/01/17 00:55:56;;;;;;;25.70;11.50;;;-2.50;99.90;;;;;;4966662;28;20035;-74
2024/01/17 00:58:21;;;;;;;23.17;11.43;;;-2.50;99.90;;;;;;4963491;28;20034;-73
2024/01/17 01:00:47;;;;;;;23.83;12.02;;;-2.40;99.90;;;;;;4967257;28;20079;-73
2024/01/17 01:03:13;;;;;;;23.05;11.75;;;-2.40;99.90;;;;;;4969378;28;20037;-74
2024/01/17 01:05:40;;;;;;;25.08;12.50;;;-2.30;99.90;;;;;;4966117;28;20034;-74
2024/01/17 01:08:05;;;;;;;24.95;11.02;;;-2.30;99.90;;;;;;4964349;28;20031;-74
2024/01/17 01:10:31;;;;;;;20.88;11.50;;;-2.30;99.90;;;;;;4970748;28;20073;-74
2024/01/17 01:12:57;;;;;;;22.80;11.77;;;-2.30;99.90;;;;;;4967112;28;20028;-74
2024/01/17 01:15:22;;;;;;;26.83;11.40;;;-2.30;99.90;;;;;;4971583;28;20073;-74
2024/01/17 01:17:48;;;;;;;20.02;10.60;;;-2.30;99.90;;;;;;4965616;28;20035;-74
2024/01/17 01:20:14;;;;;;;26.52;12.82;;;-2.20;99.90;;;;;;4970778;28;20037;-74
2024/01/17 01:22:39;;;;;;;22.92;10.63;;;-2.30;99.90;;;;;;4970093;28;20109;-74
2024/01/17 01:25:05;;;;;;;23.35;11.55;;;-2.30;99.90;;;;;;4969863;28;20031;-74
2024/01/17 01:27:32;;;;;;;23.15;11.40;;;-2.30;99.90;;;;;;4968987;28;20031;-74
2024/01/17 01:29:57;;;;;;;26.33;12.07;;;-2.20;99.90;;;;;;4968345;28;20794;-74
2024/01/17 01:32:23;;;;;;;23.15;11.23;;;-2.30;99.90;;;;;;4969398;28;20103;-74
2024/01/17 01:34:48;;;;;;;19.95;10.57;;;-2.20;99.90;;;;;;4968924;28;20031;-74
2024/01/17 01:37:16;;;;;;;22.40;10.90;;;-2.30;99.90;;;;;;4968485;28;20106;-74
2024/01/17 01:39:42;;;;;;;20.63;10.68;;;-2.30;99.90;;;;;;4969852;28;20435;-74
2024/01/17 01:42:08;;;;;;;26.92;11.90;;;-2.20;99.90;;;;;;4970161;28;20151;-74
2024/01/17 01:44:34;;;;;;;22.85;10.60;;;-2.20;99.90;;;;;;4969261;28;20082;-74
2024/01/17 01:47:00;;;;;;;21.65;10.65;;;-2.20;99.90;;;;;;4969809;28;20030;-73
2024/01/17 01:49:25;;;;;;;19.42;9.90;;;-2.20;99.90;;;;;;4969331;28;20482;-74
2024/01/17 01:51:52;;;;;;;23.80;10.50;;;-2.20;99.90;;;;;;4972381;28;20039;-73
2024/01/17 01:54:21;;;;;;;20.85;10.38;;;-2.20;99.90;;;;;;4972554;28;20698;-74
2024/01/17 01:56:48;;;;;;;25.10;11.52;;;-2.20;99.90;;;;;;4972728;28;20474;-74
2024/01/17 01:59:19;;;;;;;22.30;10.75;;;-2.20;99.90;;;;;;4968926;28;20035;-73
2024/01/17 02:01:46;;;;;;;20.60;10.23;;;-2.20;99.90;;;;;;4971496;28;20038;-74
2024/01/17 02:04:12;;;;;;;20.77;10.38;;;-2.20;99.90;;;;;;4970899;28;20675;-74
2024/01/17 02:06:39;;;;;;;25.65;11.70;;;-2.20;99.90;;;;;;4970076;28;20030;-74
2024/01/17 02:09:05;;;;;;;24.35;10.65;;;-2.10;99.90;;;;;;4970125;28;20046;-73
2024/01/17 02:11:31;;;;;;;22.38;10.88;;;-2.10;99.90;;;;;;4971180;28;20487;-73
2024/01/17 02:13:57;;;;;;;20.27;10.02;;;-2.10;99.90;;;;;;4968820;28;20030;-74
2024/01/17 02:16:26;;;;;;;21.52;11.43;;;-2.10;99.90;;;;;;4968723;28;20041;-74
2024/01/17 02:18:52;;;;;;;22.13;11.30;;;-2.10;99.90;;;;;;4972465;28;20039;-73
2024/01/17 02:21:18;;;;;;;25.95;12.50;;;-2.10;99.90;;;;;;4966951;28;20105;-74
2024/01/17 02:23:50;;;;;;;28.52;12.07;;;-2.10;99.90;;;;;;4973071;28;20527;-74
2024/01/17 02:26:16;;;;;;;22.23;11.10;;;-2.10;99.90;;;;;;4971385;28;20084;-74
2024/01/17 02:28:41;;;;;;;28.33;12.60;;;-2.10;99.90;;;;;;4970588;28;20443;-74
2024/01/17 02:31:07;;;;;;;22.38;11.40;;;-2.00;99.90;;;;;;4967288;28;20046;-73
2024/01/17 02:33:34;;;;;;;23.13;11.45;;;-2.00;99.90;;;;;;4970372;28;20089;-74
2024/01/17 02:35:59;;;;;;;22.63;11.60;;;-2.00;99.90;;;;;;4969015;28;20054;-73
2024/01/17 02:38:25;;;;;;;23.77;12.45;;;-1.90;99.90;;;;;;4969734;28;20030;-74
2024/01/17 02:40:50;;;;;;;24.60;12.48;;;-1.90;99.90;;;;;;4968255;28;20138;-74
2024/01/17 02:43:16;;;;;;;21.60;12.05;;;-1.80;99.90;;;;;;4971755;28;20105;-74
2024/01/17 02:45:42;;;;;;;24.02;11.40;;;-1.80;99.90;;;;;;4971149;28;20038;-74
2024/01/17 02:48:07;;;;;;;23.27;11.40;;;-1.70;99.90;;;;;;4969757;28;20074;-74
2024/01/17 02:50:33;;;;;;;23.50;11.80;;;-1.60;99.90;;;;;;4970063;28;20102;-74
2024/01/17 02:52:59;;;;;;;22.42;11.00;;;-1.50;99.90;;;;;;4967939;28;20481;-74
2024/01/17 02:55:24;;;;;;;18.75;10.40;;;-1.40;99.90;;;;;;4968131;28;20128;-74
2024/01/17 02:57:51;;;;;;;23.00;11.40;;;-1.40;99.90;;;;;;4971348;28;20569;-74
2024/01/17 03:00:18;;;;;;;28.70;12.23;;;-1.30;99.90;;;;;;4968492;28;20027;-74
2024/01/17 03:02:44;;;;;;;18.30;10.23;;;-1.20;99.90;;;;;;4969541;28;20129;-74
2024/01/17 03:05:10;;;;;;;22.23;10.10;;;-1.10;99.90;;;;;;4965671;28;20031;-73
2024/01/17 03:07:35;;;;;;;20.30;10.32;;;-1.00;99.90;;;;;;4969288;28;20030;-74
2024/01/17 03:10:01;;;;;;;24.85;11.13;;;-0.90;99.90;;;;;;4968997;28;20390;-74
2024/01/17 03:12:26;;;;;;;25.00;10.32;;;-0.80;99.90;;;;;;4969995;28;20030;-74
2024/01/17 03:14:52;;;;;;;26.13;11.68;;;-0.70;99.90;;;;;;4969867;28;20049;-74
2024/01/17 03:17:18;;;;;;;21.38;11.25;;;-0.60;99.90;;;;;;4965777;28;20490;-74
2024/01/17 03:19:44;;;;;;;22.35;11.27;;;-0.60;99.90;;;;;;4971357;28;20041;-74
2024/01/17 03:22:10;;;;;;;18.48;10.48;;;-0.50;99.90;;;;;;4969061;28;20050;-74
2024/01/17 03:24:38;;;;;;;21.67;10.68;;;-0.40;99.90;;;;;;4970825;28;20510;-73
2024/01/17 03:27:04;;;;;;;29.13;11.77;;;-0.40;99.90;;;;;;4967594;28;20019;-74
2024/01/17 03:29:30;;;;;;;23.10;10.80;;;-0.30;99.90;;;;;;4965736;28;20505;-74
2024/01/17 03:31:55;;;;;;;24.38;11.48;;;-0.30;99.90;;;;;;4969492;28;20046;-74
2024/01/17 03:34:21;;;;;;;21.10;10.48;;;-0.20;99.90;;;;;;4968846;28;20027;-74
2024/01/17 03:36:46;;;;;;;25.13;12.25;;;-0.20;99.90;;;;;;4968690;28;20031;-74
2024/01/17 03:39:12;;;;;;;23.55;11.48;;;-0.20;99.90;;;;;;4969760;28;20038;-74
2024/01/17 03:41:38;;;;;;;22.10;11.63;;;-0.10;99.90;;;;;;4967406;28;20034;-74
2024/01/17 03:44:04;;;;;;;23.23;12.07;;;-0.10;99.90;;;;;;4969159;28;20038;-73
2024/01/17 03:46:29;;;;;;;22.50;11.15;;;0.00;99.90;;;;;;4970727;28;20018;-74
2024/01/17 03:48:55;;;;;;;24.13;12.15;;;0.00;99.90;;;;;;4970889;28;20038;-74
2024/01/17 03:51:21;;;;;;;23.25;12.05;;;0.10;99.90;;;;;;4967749;28;20027;-73
2024/01/17 03:53:47;;;;;;;27.00;13.50;;;0.20;99.90;;;;;;4968921;28;20508;-74
2024/01/17 03:56:13;;;;;;;24.70;12.88;;;0.20;99.90;;;;;;4968816;28;20034;-73
2024/01/17 03:58:42;;;;;;;28.13;14.05;;;0.30;99.90;;;;;;4969420;28;20466;-73
2024/01/17 04:01:11;;;;;;;25.60;12.48;;;0.30;99.90;;;;;;4968356;28;20441;-72
2024/01/17 04:03:37;;;;;;;24.83;12.68;;;0.30;99.90;;;;;;4962572;28;20129;-74
2024/01/17 04:06:03;;;;;;;26.15;12.90;;;0.40;99.90;;;;;;4967274;28;20034;-74
2024/01/17 04:08:29;;;;;;;24.40;12.52;;;0.40;99.90;;;;;;4965682;28;20042;-74
2024/01/17 04:10:55;;;;;;;27.52;13.68;;;0.40;99.90;;;;;;4967477;28;20127;-74
2024/01/17 04:13:20;;;;;;;27.85;13.82;;;0.50;99.90;;;;;;4966841;28;20046;-74
2024/01/17 04:15:46;;;;;;;25.55;12.90;;;0.50;99.90;;;;;;4968612;28;20506;-74
2024/01/17 04:18:11;;;;;;;22.02;12.43;;;0.60;99.90;;;;;;4969421;28;20022;-74
2024/01/17 04:20:37;;;;;;;26.10;13.30;;;0.60;99.90;;;;;;4966379;28;20089;-74
2024/01/17 04:23:06;;;;;;;24.30;12.52;;;0.60;99.90;;;;;;4966813;28;20573;-74
2024/01/17 04:25:32;;;;;;;22.33;11.88;;;0.70;99.90;;;;;;4966074;28;20020;-74
2024/01/17 04:27:58;;;;;;;21.77;12.40;;;0.70;99.90;;;;;;4969208;28;20033;-73
2024/01/17 04:30:24;;;;;;;25.00;12.55;;;0.70;99.90;;;;;;4969946;28;20079;-73
2024/01/17 04:32:49;;;;;;;26.13;13.55;;;0.70;99.90;;;;;;4969220;28;20042;-73
2024/01/17 04:35:20;;;;;;;25.95;12.63;;;0.80;99.90;;;;;;4967190;28;20105;-73
2024/01/17 04:37:46;;;;;;;24.73;12.88;;;0.80;99.90;;;;;;4965943;28;20050;-73
2024/01/17 04:40:12;;;;;;;24.80;14.18;;;0.80;99.90;;;;;;4970399;28;20039;-73
2024/01/17 04:42:38;;;;;;;23.92;11.98;;;0.80;99.90;;;;;;4970284;28;20568;-73
2024/01/17 04:45:04;;;;;;;23.52;12.02;;;0.80;99.90;;;;;;4974783;28;20389;-73
2024/01/17 04:47:33;;;;;;;26.40;11.65;;;0.80;99.90;;;;;;4970321;28;20035;-73
2024/01/17 04:49:59;;;;;;;25.08;12.82;;;0.80;99.90;;;;;;4970882;28;20089;-73
2024/01/17 04:52:24;;;;;;;24.00;13.13;;;0.80;99.90;;;;;;4970024;28;20031;-74
2024/01/17 04:54:50;;;;;;;26.15;12.75;;;0.70;99.90;;;;;;4974400;28;20031;-73
2024/01/17 04:57:16;;;;;;;28.27;12.18;;;0.60;99.90;;;;;;4971229;28;20019;-73
2024/01/17 04:59:42;;;;;;;25.15;12.85;;;0.50;99.90;;;;;;4974112;28;20566;-74
2024/01/17 05:02:08;;;;;;;24.95;13.15;;;0.30;99.90;;;;;;4970937;28;20118;-73
2024/01/17 05:04:34;;;;;;;24.85;13.73;;;0.30;99.90;;;;;;4970763;28;20158;-73
2024/01/17 05:06:59;;;;;;;26.08;13.32;;;0.20;99.90;;;;;;4973175;28;20414;-74
2024/01/17 05:09:25;;;;;;;25.77;13.07;;;0.10;99.90;;;;;;4974263;28;20102;-73
2024/01/17 05:11:50;;;;;;;29.48;12.70;;;0.10;99.90;;;;;;4971195;28;20153;-73
2024/01/17 05:14:16;;;;;;;24.40;12.93;;;0.00;99.90;;;;;;4972138;28;20035;-74
2024/01/17 05:16:42;;;;;;;28.90;13.45;;;-0.10;99.90;;;;;;4969654;28;20102;-74
2024/01/17 05:19:08;;;;;;;30.00;13.52;;;-0.10;99.90;;;;;;4971232;28;20490;-73
2024/01/17 05:21:33;;;;;;;26.70;12.90;;;-0.20;99.90;;;;;;4973424;28;20039;-73
2024/01/17 05:23:59;;;;;;;24.83;11.25;;;-0.30;99.90;;;;;;4972152;28;20139;-73
2024/01/17 05:26:25;;;;;;;37.03;14.23;;;-0.30;99.90;;;;;;4968658;28;20042;-74
2024/01/17 05:28:51;;;;;;;31.85;14.85;;;-0.40;99.90;;;;;;4973501;28;20221;-73
2024/01/17 05:31:16;;;;;;;36.75;14.45;;;-0.40;99.90;;;;;;4972704;28;20019;-73
2024/01/17 05:33:43;;;;;;;29.15;12.48;;;-0.50;99.90;;;;;;4972174;28;20027;-72
2024/01/17 05:36:09;;;;;;;23.92;12.90;;;-0.50;99.90;;;;;;4970059;28;20682;-72
2024/01/17 05:38:35;;;;;;;32.50;13.07;;;-0.60;99.90;;;;;;4971595;28;20113;-73
2024/01/17 05:41:00;;;;;;;27.73;12.45;;;-0.60;99.90;;;;;;4973717;28;20035;-73
2024/01/17 05:43:26;;;;;;;24.15;12.75;;;-0.60;99.90;;;;;;4974997;28;20031;-73
2024/01/17 05:45:51;;;;;;;27.90;11.48;;;-0.60;99.90;;;;;;4973973;28;20510;-74
2024/01/17 05:48:17;;;;;;;24.88;12.55;;;-0.60;99.90;;;;;;4971934;28;20053;-74
2024/01/17 05:50:44;;;;;;;27.48;14.07;;;-0.60;99.90;;;;;;4974808;28;20128;-74
2024/01/17 05:53:10;;;;;;;32.78;14.20;;;-0.60;99.90;;;;;;4971142;28;20450;-74
2024/01/17 05:55:36;;;;;;;24.30;14.15;;;-0.60;99.90;;;;;;4968642;28;20122;-74
2024/01/17 05:58:02;;;;;;;27.88;13.60;;;-0.60;99.90;;;;;;4971566;28;20607;-73
2024/01/17 06:00:28;;;;;;;25.42;12.98;;;-0.60;99.90;;;;;;4970013;28;20111;-74
2024/01/17 06:02:54;;;;;;;23.85;11.80;;;-0.60;99.90;;;;;;4970084;28;20034;-74
2024/01/17 06:05:20;;;;;;;24.70;12.52;;;-0.60;99.90;;;;;;4969367;28;20031;-73
2024/01/17 06:07:45;;;;;;;26.48;13.35;;;-0.60;99.90;;;;;;4972884;28;20477;-74
2024/01/17 06:10:13;;;;;;;32.83;14.45;;;-0.60;99.90;;;;;;4970613;28;20459;-73
2024/01/17 06:12:40;;;;;;;27.33;14.02;;;-0.50;99.90;;;;;;4971771;28;20037;-73
2024/01/17 06:15:06;;;;;;;27.40;13.88;;;-0.50;99.90;;;;;;4970979;28;20037;-73
2024/01/17 06:17:32;;;;;;;28.60;14.50;;;-0.50;99.90;;;;;;4971223;28;20018;-73
2024/01/17 06:19:58;;;;;;;24.10;14.38;;;-0.50;99.90;;;;;;4972054;28;20557;-72
2024/01/17 06:22:23;;;;;;;28.25;13.95;;;-0.50;99.90;;;;;;4972881;28;20066;-73
2024/01/17 06:24:49;;;;;;;25.45;13.25;;;-0.40;99.90;;;;;;4969324;28;20038;-74
2024/01/17 06:27:15;;;;;;;22.45;11.75;;;-0.40;99.90;;;;;;4970372;28;20032;-73
2024/01/17 06:29:42;;;;;;;28.55;12.73;;;-0.30;99.90;;;;;;4967946;28;20437;-76
2024/01/17 06:32:08;;;;;;;28.63;13.68;;;0.00;99.90;;;;;;4970600;28;20027;-77
2024/01/17 06:34:33;;;;;;;24.85;12.93;;;0.40;99.90;;;;;;4973279;28;20502;-77
2024/01/17 06:36:59;;;;;;;23.83;12.00;;;1.00;99.90;;;;;;4974088;28;20031;-78
2024/01/17 06:39:26;;;;;;;20.20;9.98;;;1.40;99.90;;;;;;4972987;28;20394;-73
2024/01/17 06:41:52;;;;;;;21.02;10.00;;;1.80;99.90;;;;;;4969980;28;20026;-73
2024/01/17 06:44:18;;;;;;;14.63;7.88;;;1.80;99.90;;;;;;4968883;28;20038;-73
2024/01/17 06:46:43;;;;;;;14.75;8.20;;;1.80;99.90;;;;;;4969223;28;20450;-73
2024/01/17 06:49:09;;;;;;;16.05;9.38;;;1.70;99.90;;;;;;4969334;28;20458;-74
2024/01/17 06:51:35;;;;;;;15.40;8.40;;;1.70;99.90;;;;;;4967920;28;20030;-73
2024/01/17 06:54:00;;;;;;;20.10;10.82;;;1.60;99.90;;;;;;4971900;28;20025;-73
2024/01/17 06:56:26;;;;;;;28.10;12.13;;;1.60;99.90;;;;;;4972419;28;20042;-73
2024/01/17 06:58:52;;;;;;;21.80;12.57;;;1.50;99.90;;;;;;4972971;28;20046;-73
2024/01/17 07:01:18;;;;;;;26.25;14.75;;;1.40;99.90;;;;;;4969979;28;20050;-73
2024/01/17 07:03:43;;;;;;;27.75;12.93;;;1.30;99.90;;;;;;4970456;28;20038;-74
2024/01/17 07:06:10;;;;;;;27.50;14.32;;;1.20;99.90;;;;;;4967085;28;20034;-73
2024/01/17 07:08:36;;;;;;;24.35;13.32;;;1.10;99.90;;;;;;4967257;28;20149;-73
2024/01/17 07:11:02;;;;;;;26.40;14.43;;;1.00;99.90;;;;;;4969673;28;20102;-73
2024/01/17 07:13:27;;;;;;;25.95;13.35;;;0.90;99.90;;;;;;4970164;28;20027;-72
2024/01/17 07:15:53;;;;;;;22.83;10.48;;;0.90;99.90;;;;;;4970346;28;20046;-73
2024/01/17 07:18:18;;;;;;;18.10;8.73;;;0.90;99.90;;;;;;4964676;28;20054;-72
2024/01/17 07:20:44;;;;;;;18.65;7.70;;;0.90;99.90;;;;;;4969337;28;20043;-73
2024/01/17 07:23:10;;;;;;;12.38;7.20;;;1.00;99.90;;;;;;4966911;28;20023;-72
2024/01/17 07:25:38;;;;;;;12.02;6.65;;;1.10;99.90;;;;;;4970557;28;20014;-72
2024/01/17 07:28:05;;;;;;;11.50;5.80;;;1.10;99.90;;;;;;4970702;28;20382;-72
2024/01/17 07:30:30;;;;;;;12.18;6.38;;;1.20;99.90;;;;;;4970125;28;20042;-72
2024/01/17 07:32:56;;;;;;;12.00;6.03;;;1.30;99.90;;;;;;4971133;28;20027;-72
2024/01/17 07:35:22;;;;;;;14.85;6.03;;;1.40;99.90;;;;;;4966062;28;20078;-73
2024/01/17 07:37:50;;;;;;;11.00;5.85;;;1.40;99.90;;;;;;4970182;28;20149;-73
2024/01/17 07:40:16;;;;;;;12.20;5.60;;;1.50;99.90;;;;;;4971545;28;20054;-72
2024/01/17 07:42:42;;;;;;;8.43;4.65;;;1.60;99.90;;;;;;4970922;28;20034;-73
2024/01/17 07:45:07;;;;;;;11.30;4.80;;;1.70;99.90;;;;;;4970954;28;20041;-71
2024/01/17 07:47:33;;;;;;;7.53;3.80;;;1.70;99.90;;;;;;4964191;28;20624;-74
2024/01/17 07:49:59;;;;;;;9.90;4.45;;;1.80;99.90;;;;;;4967783;28;20034;-73
2024/01/17 07:52:26;;;;;;;12.13;5.28;;;1.90;99.90;;;;;;4969219;28;20512;-72
2024/01/17 07:54:51;;;;;;;10.00;4.65;;;2.00;99.90;;;;;;4971361;28;20058;-70
2024/01/17 07:57:17;;;;;;;6.43;3.67;;;2.00;99.90;;;;;;4970784;28;20482;-73
2024/01/17 07:59:43;;;;;;;9.00;4.22;;;2.10;99.90;;;;;;4970165;28;20563;-71
2024/01/17 08:02:10;;;;;;;9.88;3.80;;;2.10;99.90;;;;;;4970249;28;20093;-71
2024/01/17 08:04:36;;;;;;;6.80;4.53;;;2.10;99.90;;;;;;4970504;28;20110;-71
2024/01/17 08:07:02;;;;;;;7.15;4.00;;;2.10;99.90;;;;;;4971164;28;20490;-71
2024/01/17 08:09:28;;;;;;;10.23;4.07;;;2.10;99.90;;;;;;4969557;28;20046;-73
2024/01/17 08:11:56;;;;;;;6.57;2.85;;;2.20;99.90;;;;;;4971969;28;20050;-73
2024/01/17 08:14:22;;;;;;;9.25;3.58;;;2.20;99.90;;;;;;4978258;28;20019;-70
2024/01/17 08:16:48;;;;;;;5.75;2.90;;;2.20;99.90;;;;;;4970607;28;20034;-72
2024/01/17 08:19:14;;;;;;;7.75;2.67;;;2.20;99.90;;;;;;4968065;28;20023;-70
2024/01/17 08:21:47;;;;;;;7.30;3.00;;;2.20;99.90;;;;;;4968763;28;20065;-73
2024/01/17 08:24:13;;;;;;;6.07;2.85;;;2.30;99.90;;;;;;4968651;28;20109;-70
2024/01/17 08:26:40;;;;;;;4.97;2.30;;;2.30;99.90;;;;;;4969826;28;20039;-73
2024/01/17 08:29:06;;;;;;;4.13;2.22;;;2.30;99.90;;;;;;4969749;28;20059;-71
2024/01/17 08:31:31;;;;;;;5.70;2.50;;;2.30;99.90;;;;;;4972074;28;20026;-72
2024/01/17 08:33:57;;;;;;;4.25;2.28;;;2.30;99.90;;;;;;4969907;28;20394;-73
2024/01/17 08:36:23;;;;;;;5.07;2.30;;;2.30;99.90;;;;;;4969597;28;20026;-72
2024/01/17 08:38:49;;;;;;;4.70;2.17;;;2.30;99.90;;;;;;4968286;28;20031;-72
2024/01/17 08:41:20;;;;;;;4.78;2.28;;;2.30;99.90;;;;;;4970988;28;20026;-71
2024/01/17 08:43:46;;;;;;;5.07;2.15;;;2.30;99.90;;;;;;4970243;28;20415;-72
2024/01/17 08:46:13;;;;;;;5.22;2.40;;;2.30;99.90;;;;;;4968079;28;20073;-72
2024/01/17 08:48:39;;;;;;;3.65;2.17;;;2.20;99.90;;;;;;4970018;28;20026;-71
2024/01/17 08:51:07;;;;;;;5.05;2.45;;;2.30;99.90;;;;;;4970239;28;20019;-72
2024/01/17 08:53:33;;;;;;;5.68;1.73;;;2.30;99.90;;;;;;4970267;28;20193;-71
2024/01/17 08:56:00;;;;;;;6.20;1.60;;;2.30;99.90;;;;;;4968102;28;20555;-73
2024/01/17 08:58:26;;;;;;;2.70;1.30;;;2.30;99.90;;;;;;4970951;28;20061;-73
2024/01/17 09:00:52;;;;;;;5.55;1.13;;;2.30;99.90;;;;;;4968439;28;20054;-74
2024/01/17 09:03:18;;;;;;;3.08;1.30;;;2.40;99.90;;;;;;4969960;28;20030;-74
2024/01/17 09:05:44;;;;;;;4.18;1.50;;;2.30;99.90;;;;;;4964548;28;20042;-74
2024/01/17 09:08:09;;;;;;;2.55;1.42;;;2.30;99.90;;;;;;4970390;28;20030;-73
2024/01/17 09:10:35;;;;;;;2.97;1.15;;;2.40;99.90;;;;;;4969602;28;20027;-73
2024/01/17 09:13:01;;;;;;;2.70;1.35;;;2.40;99.90;;;;;;4969771;28;20030;-73
2024/01/17 09:15:26;;;;;;;3.65;1.20;;;2.40;99.90;;;;;;4968879;28;20066;-73
2024/01/17 09:17:52;;;;;;;2.08;1.10;;;2.40;99.90;;;;;;4968106;28;20794;-73
2024/01/17 09:20:17;;;;;;;2.10;1.15;;;2.40;99.90;;;;;;4968740;28;20089;-74
2024/01/17 09:22:43;;;;;;;3.72;1.42;;;2.50;99.90;;;;;;4968677;28;20039;-73
2024/01/17 09:25:09;;;;;;;3.15;1.60;;;2.50;99.90;;;;;;4971454;28;20031;-74
2024/01/17 09:27:35;;;;;;;2.90;1.40;;;2.50;99.90;;;;;;4970399;28;20031;-73
2024/01/17 09:30:01;;;;;;;5.47;1.92;;;2.50;99.90;;;;;;4969140;28;20101;-73
2024/01/17 09:32:26;;;;;;;2.08;1.05;;;2.60;99.90;;;;;;4971381;28;20173;-73
2024/01/17 09:34:53;;;;;;;3.13;1.50;;;2.60;99.90;;;;;;4974727;28;20513;-73
2024/01/17 09:37:18;;;;;;;5.60;1.95;;;2.60;99.90;;;;;;4973465;28;20022;-73
2024/01/17 09:39:44;;;;;;;4.80;1.73;;;2.50;99.90;;;;;;4975028;28;20031;-73
2024/01/17 09:42:13;;;;;;;3.85;1.48;;;2.50;99.90;;;;;;4973123;28;20034;-73
2024/01/17 09:44:39;;;;;;;3.05;1.55;;;2.60;99.90;;;;;;4972324;28;20030;-73
2024/01/17 09:47:05;;;;;;;3.65;1.35;;;2.60;99.90;;;;;;4971320;28;20038;-74
2024/01/17 09:49:32;;;;;;;4.88;1.80;;;2.60;99.90;;;;;;4972324;28;20027;-73
2024/01/17 09:52:03;;;;;;;4.57;1.70;;;2.60;99.90;;;;;;4970951;28;20458;-73
2024/01/17 09:54:41;;;;;;;3.30;1.17;;;2.60;99.90;;;;;;4972780;28;20025;-73
2024/01/17 09:57:07;;;;;;;2.90;1.20;;;2.70;99.90;;;;;;4971417;28;20029;-74
2024/01/17 09:59:34;;;;;;;2.95;1.00;;;2.70;99.90;;;;;;4969685;28;20090;-73
2024/01/17 10:02:01;;;;;;;2.00;1.10;;;2.80;99.90;;;;;;4972223;28;20037;-73
2024/01/17 10:04:26;;;;;;;1.23;0.70;;;2.80;99.90;;;;;;4974122;28;20119;-74
2024/01/17 10:06:55;;;;;;;2.35;1.00;;;2.90;99.90;;;;;;4970312;28;20114;-73
2024/01/17 10:09:24;;;;;;;3.67;1.33;;;3.00;99.90;;;;;;4971448;28;20552;-74
2024/01/17 10:11:53;;;;;;;3.47;1.30;;;3.00;99.90;;;;;;4970933;28;20114;-74
2024/01/17 10:14:21;;;;;;;2.00;0.88;;;3.00;99.90;;;;;;4971921;28;20093;-73
2024/01/17 10:16:48;;;;;;;4.53;1.75;;;3.00;99.90;;;;;;4968981;28;20043;-74
2024/01/17 10:19:15;;;;;;;3.10;1.60;;;3.00;99.90;;;;;;4971910;28;20084;-74
2024/01/17 10:21:43;;;;;;;2.38;1.00;;;3.00;99.90;;;;;;4972032;28;20034;-74
2024/01/17 10:24:10;;;;;;;1.95;1.10;;;3.10;99.90;;;;;;4972397;28;20402;-74
2024/01/17 10:26:39;;;;;;;1.17;0.70;;;3.20;99.90;;;;;;4973450;28;20062;-74
2024/01/17 10:29:04;;;;;;;2.10;0.93;;;3.30;99.90;;;;;;4967775;28;20026;-74
2024/01/17 10:31:30;;;;;;;2.22;0.98;;;3.30;99.90;;;;;;4968979;28;20019;-73
2024/01/17 10:33:56;;;;;;;3.03;1.27;;;3.30;99.90;;;;;;4970331;28;20387;-74
2024/01/17 10:36:22;;;;;;;3.58;1.08;;;3.40;99.90;;;;;;4969776;28;20030;-73
2024/01/17 10:38:49;;;;;;;2.70;1.20;;;3.40;99.90;;;;;;4962523;28;20564;-73
2024/01/17 10:41:15;;;;;;;3.15;1.10;;;3.50;99.90;;;;;;4967074;28;20116;-73
2024/01/17 10:43:57;;;;;;;2.88;1.00;;;3.50;99.90;;;;;;4967146;28;20106;-73
2024/01/17 10:46:23;;;;;;;3.25;1.08;;;3.60;99.90;;;;;;4965425;28;20047;-73
2024/01/17 10:48:50;;;;;;;6.00;1.10;;;3.70;99.90;;;;;;4962118;28;20035;-73
2024/01/17 10:51:21;;;;;;;2.72;1.13;;;3.60;99.90;;;;;;4963608;28;20026;-73
2024/01/17 10:53:52;;;;;;;6.13;1.38;;;3.60;99.90;;;;;;4959938;28;20031;-73
2024/01/17 10:56:19;;;;;;;3.22;1.00;;;3.70;99.90;;;;;;4962560;28;20417;-73
2024/01/17 10:58:48;;;;;;;2.03;0.90;;;3.80;99.90;;;;;;4966856;28;20034;-73
2024/01/17 11:01:16;;;;;;;3.45;1.02;;;3.80;99.90;;;;;;4963893;28;20023;-73
2024/01/17 11:03:46;;;;;;;1.88;0.98;;;3.80;99.90;;;;;;4961835;28;20038;-73
2024/01/17 11:06:12;;;;;;;1.83;0.95;;;3.80;99.90;;;;;;4979951;28;20031;-73
2024/01/17 11:08:40;;;;;;;1.70;0.70;;;3.90;99.90;;;;;;4965737;28;21220;-73
2024/01/17 11:11:09;;;;;;;2.42;1.08;;;3.90;99.90;;;;;;4967531;28;20101;-73
2024/01/17 11:13:35;;;;;;;3.42;1.08;;;3.90;99.90;;;;;;4965483;28;20521;-72
2024/01/17 11:16:05;;;;;;;2.97;1.05;;;4.00;99.90;;;;;;4967454;28;20034;-73
2024/01/17 11:18:34;;;;;;;2.25;1.00;;;4.00;99.90;;;;;;4964814;28;20031;-73
2024/01/17 11:21:03;;;;;;;3.88;1.05;;;4.00;99.90;;;;;;4963888;28;20185;-73
2024/01/17 11:23:53;;;;;;;1.63;1.02;;;4.10;99.90;;;;;;4966928;28;20035;-73
2024/01/17 11:26:26;;;;;;;2.47;1.20;;;4.00;99.90;;;;;;4967341;28;20031;-74
2024/01/17 11:29:28;;;;;;;3.95;1.48;;;4.00;99.90;;;;;;4965767;28;20065;-73
2024/01/17 11:32:19;;;;;;;8.73;4.53;;;4.00;99.90;;;;;;4957382;28;20033;-73
2024/01/17 11:34:48;;;;;;;12.10;6.85;;;4.00;99.90;;;;;;4970678;28;20019;-74
2024/01/17 11:37:30;;;;;;;24.13;14.73;;;4.00;99.90;;;;;;4969708;28;20043;-73
2024/01/17 11:39:57;;;;;;;29.33;17.40;;;3.90;99.90;;;;;;4968275;28;20425;-72
2024/01/17 11:42:23;;;;;;;34.22;17.30;;;3.90;99.90;;;;;;4967858;28;20046;-72
2024/01/17 11:44:51;;;;;;;31.00;18.25;;;3.80;99.90;;;;;;4964614;28;20023;-73
2024/01/17 11:47:20;;;;;;;36.72;18.38;;;3.80;99.90;;;;;;4970280;28;20031;-73
2024/01/17 11:49:46;;;;;;;31.05;17.60;;;3.70;99.90;;;;;;4969388;28;20022;-73
2024/01/17 11:52:26;;;;;;;36.03;19.02;;;3.60;99.90;;;;;;4960543;28;20537;-73
2024/01/17 11:54:52;;;;;;;32.17;18.75;;;3.50;99.90;;;;;;4964176;28;20072;-73
2024/01/17 11:57:17;;;;;;;35.08;20.98;;;3.50;99.90;;;;;;4958320;28;20045;-72
2024/01/17 11:59:43;;;;;;;41.72;20.88;;;3.40;99.90;;;;;;4963183;28;20035;-73
2024/01/17 12:02:38;;;;;;;30.55;17.02;;;3.40;99.90;;;;;;4965865;28;20058;-72
2024/01/17 12:05:09;;;;;;;13.02;6.25;;;3.40;99.90;;;;;;4967860;28;20030;-71
2024/01/17 12:07:43;;;;;;;11.85;6.13;;;3.70;99.90;;;;;;4965459;28;20099;-71
2024/01/17 12:10:10;;;;;;;;;;;3.80;99.90;;;;;;4962687;28;20030;-72
2024/01/17 12:12:46;;;;;;;5.40;2.80;;;3.80;99.90;;;;;;4969434;28;20004;-71
2024/01/17 12:15:13;;;;;;;6.05;2.10;;;3.90;99.90;;;;;;4968047;28;20497;-73
2024/01/17 12:17:40;;;;;;;6.68;3.63;;;4.00;99.90;;;;;;4965550;28;20027;-73
2024/01/17 12:20:09;;;;;;;8.65;3.72;;;4.00;99.90;;;;;;4966722;28;20153;-71
2024/01/17 12:22:35;;;;;;;25.63;11.57;;;4.10;99.90;;;;;;4968631;28;20109;-73
2024/01/17 12:25:01;;;;;;;31.40;15.75;;;4.10;99.90;;;;;;4963630;28;20556;-73
2024/01/17 12:27:31;;;;;;;31.00;16.23;;;4.00;99.90;;;;;;4966784;28;20097;-73
2024/01/17 12:30:04;;;;;;;29.10;14.50;;;4.00;99.90;;;;;;4966988;28;20031;-73
2024/01/17 12:32:31;;;;;;;23.45;12.57;;;3.90;99.90;;;;;;4961851;28;20026;-73
2024/01/17 12:34:57;;;;;;;15.70;8.48;;;3.80;99.90;;;;;;4969161;28;20176;-73
2024/01/17 12:37:22;;;;;;;12.35;6.05;;;3.90;99.90;;;;;;4962866;28;20530;-73